Archival Weather

Heathrow

London, United Kingdom (EGLL)

Report from: Thursday, September 21, 2023 12:50 PM BST
Current time: Saturday, February 24, 2024 4:11 PM GMT

Current weather – Weather history – Daily summaries
Weather forecast

Temperature18.0°C (64.4°F)
Dew point9.0°C (48.2°F)
Winds 8 kts (4.1 m/s, 9.2 mph) Vrb
Winds variableWinds variable from South-Southeast (160°) to Southwest (230°)
Visibility6.2 mi. (10 km)
Clouds Scattered clouds 3,700 ft. (1,128 m)
Altimeter29.38 in.Hg (995 mB)
Relative humidity56 %
Density altitude1,137 ft. (347 m)
Remarks Fully automated report
Corrected report
Flight conditions Visual Meteorological Conditions
Raw dataCOR EGLL 211150Z AUTO 19008KT 160V230 9999 SCT037/// //////CB 18/09 Q0995 TEMPO 6000 SHRA
An error has occurred. This application may no longer respond until reloaded. Reload 🗙